Time;durP1;ratioP1;P1;durP2;ratioP2;P2;SDS_P1;SDS_P2;PMS_P1;PMS_P2;Temp;Humidity;BMP_temperature;BMP_pressure;BME280_temperature;BME280_humidity;BME280_pressure;Samples;Min_cycle;Max_cycle;Signal;HPM_P1;HPM_P2
2023/03/05 00:00:12;;;;;;;8.68;1.25;;;6.70;99.90;;;;;;4994515;28;20281;-80
2023/03/05 00:02:37;;;;;;;11.38;1.58;;;6.60;99.90;;;;;;4979549;28;20474;-81
2023/03/05 00:05:03;;;;;;;10.45;1.75;;;6.60;99.90;;;;;;4996340;28;20591;-80
2023/03/05 00:07:29;;;;;;;8.18;1.38;;;6.60;99.90;;;;;;4999471;28;20104;-81
2023/03/05 00:09:57;;;;;;;12.27;1.73;;;6.60;99.90;;;;;;4994649;28;20049;-80
2023/03/05 00:12:23;;;;;;;9.48;1.25;;;6.60;99.90;;;;;;4993182;28;20030;-81
2023/03/05 00:14:48;;;;;;;6.82;1.33;;;6.70;99.90;;;;;;4996610;28;20018;-80
2023/03/05 00:17:14;;;;;;;8.02;2.00;;;6.60;99.90;;;;;;4993326;28;20029;-81
2023/03/05 00:19:39;;;;;;;9.82;1.80;;;6.60;99.90;;;;;;4995042;28;20029;-81
2023/03/05 00:22:05;;;;;;;10.13;1.88;;;6.60;99.90;;;;;;4976740;28;20061;-81
2023/03/05 00:24:31;;;;;;;8.65;2.00;;;6.60;99.90;;;;;;4995600;28;20029;-80
2023/03/05 00:26:56;;;;;;;13.50;2.00;;;6.70;99.90;;;;;;4990493;28;20449;-81
2023/03/05 00:29:22;;;;;;;13.60;1.50;;;6.70;99.90;;;;;;4996341;28;20030;-80
2023/03/05 00:31:48;;;;;;;9.52;1.63;;;6.70;99.90;;;;;;4995504;28;20086;-80
2023/03/05 00:34:15;;;;;;;13.15;1.48;;;6.70;99.90;;;;;;4982075;28;20026;-80
2023/03/05 00:36:43;;;;;;;7.30;1.70;;;6.80;99.90;;;;;;4996594;28;20779;-81
2023/03/05 00:39:09;;;;;;;10.18;1.92;;;6.80;99.90;;;;;;4995460;28;20106;-81
2023/03/05 00:41:35;;;;;;;9.00;1.60;;;6.70;99.90;;;;;;4974426;28;20026;-81
2023/03/05 00:44:00;;;;;;;15.43;2.38;;;6.70;99.90;;;;;;4993688;28;20040;-80
2023/03/05 00:46:28;;;;;;;8.65;1.70;;;6.60;99.90;;;;;;4977259;28;20104;-81
2023/03/05 00:48:55;;;;;;;6.90;1.80;;;6.60;99.90;;;;;;4993390;28;20034;-81
2023/03/05 00:51:21;;;;;;;12.73;1.70;;;6.50;99.90;;;;;;4992935;28;20373;-80
2023/03/05 00:53:46;;;;;;;11.05;2.15;;;6.60;99.90;;;;;;4978673;28;20030;-81
2023/03/05 00:56:12;;;;;;;9.48;1.85;;;6.50;99.90;;;;;;4993919;28;20022;-80
2023/03/05 00:58:38;;;;;;;10.70;2.13;;;6.50;99.90;;;;;;4995751;28;20510;-81
2023/03/05 01:01:05;;;;;;;3.03;1.55;;;6.40;99.90;;;;;;4973933;28;20017;-81
2023/03/05 01:03:31;;;;;;;10.25;2.13;;;6.40;99.90;;;;;;4996069;28;20018;-80
2023/03/05 01:05:58;;;;;;;9.77;2.53;;;6.20;99.90;;;;;;4992325;28;20027;-81
2023/03/05 01:08:24;;;;;;;17.27;2.03;;;6.20;99.90;;;;;;4995940;28;20089;-81
2023/03/05 01:10:50;;;;;;;8.27;2.05;;;6.20;99.90;;;;;;4991430;28;20474;-81
2023/03/05 01:13:15;;;;;;;12.88;2.15;;;6.20;99.90;;;;;;4994258;28;20501;-81
2023/03/05 01:15:41;;;;;;;8.88;2.20;;;6.30;99.90;;;;;;4973985;28;20097;-81
2023/03/05 01:18:07;;;;;;;12.93;2.20;;;6.40;99.90;;;;;;4996074;28;20654;-81
2023/03/05 01:20:32;;;;;;;11.60;2.00;;;6.40;99.90;;;;;;4994649;28;20037;-81
2023/03/05 01:23:00;;;;;;;11.27;2.00;;;6.40;99.90;;;;;;4976571;28;20026;-80
2023/03/05 01:25:26;;;;;;;14.30;2.30;;;6.40;99.90;;;;;;4994226;28;20021;-81
2023/03/05 01:27:52;;;;;;;8.25;2.20;;;6.30;99.90;;;;;;4973789;28;20034;-81
2023/03/05 01:30:18;;;;;;;10.57;1.90;;;6.40;99.90;;;;;;4980930;28;20014;-81
2023/03/05 01:32:44;;;;;;;22.70;2.15;;;6.40;99.90;;;;;;4995276;28;20039;-81
2023/03/05 01:35:16;;;;;;;15.90;2.35;;;6.40;99.90;;;;;;4996743;28;20029;-81
2023/03/05 01:37:41;;;;;;;11.13;2.00;;;6.40;99.90;;;;;;4995996;28;20048;-81
2023/03/05 01:40:09;;;;;;;15.00;2.15;;;6.30;99.90;;;;;;4984695;28;20037;-81
2023/03/05 01:42:35;;;;;;;10.20;2.25;;;6.30;99.90;;;;;;4982135;28;20026;-81
2023/03/05 01:45:11;;;;;;;9.05;2.85;;;6.30;99.90;;;;;;4996224;28;20057;-81
2023/03/05 01:47:38;;;;;;;11.82;2.90;;;6.20;99.90;;;;;;4982400;28;20038;-81
2023/03/05 01:50:07;;;;;;;11.05;2.58;;;6.20;99.90;;;;;;4993033;28;20045;-81
2023/03/05 01:52:36;;;;;;;11.38;1.88;;;6.20;99.90;;;;;;4976728;28;20104;-80
2023/03/05 01:55:08;;;;;;;10.23;2.25;;;6.10;99.90;;;;;;4995940;28;20022;-81
2023/03/05 01:57:40;;;;;;;14.13;2.28;;;6.10;99.90;;;;;;4994359;28;20014;-81
2023/03/05 02:00:14;;;;;;;14.90;2.27;;;6.10;99.90;;;;;;4978097;28;20043;-81
2023/03/05 02:02:42;;;;;;;4.88;1.60;;;6.20;99.90;;;;;;4992242;28;20260;-81
2023/03/05 02:05:25;;;;;;;11.23;2.03;;;6.20;99.90;;;;;;4994347;28;20572;-81
2023/03/05 02:07:59;;;;;;;12.00;2.20;;;6.10;99.90;;;;;;4991071;28;20357;-81
2023/03/05 02:10:37;;;;;;;13.90;2.03;;;6.00;99.90;;;;;;4996620;28;20033;-81
2023/03/05 02:13:09;;;;;;;16.60;2.38;;;6.00;99.90;;;;;;4991645;28;20034;-81
2023/03/05 02:15:35;;;;;;;6.30;2.05;;;6.00;99.90;;;;;;4972241;28;20034;-81
2023/03/05 02:18:01;;;;;;;3.05;1.77;;;6.00;99.90;;;;;;4984588;28;20121;-81
2023/03/05 02:20:30;;;;;;;15.23;2.22;;;6.00;99.90;;;;;;4994255;28;20097;-81
2023/03/05 02:22:56;;;;;;;12.68;3.00;;;6.00;99.90;;;;;;4990717;28;20027;-80
2023/03/05 02:25:26;;;;;;;10.00;2.20;;;6.00;99.90;;;;;;4990077;28;20035;-81
2023/03/05 02:28:03;;;;;;;8.55;2.85;;;6.10;99.90;;;;;;4976751;28;20076;-81
2023/03/05 02:30:31;;;;;;;10.02;1.88;;;6.00;99.90;;;;;;5002477;28;20065;-81
2023/03/05 02:33:02;;;;;;;18.02;2.40;;;6.00;99.90;;;;;;5016161;28;20026;-81
2023/03/05 02:35:28;;;;;;;11.73;2.58;;;6.00;99.90;;;;;;5019745;28;20015;-81
2023/03/05 02:37:53;;;;;;;4.10;2.08;;;6.00;99.90;;;;;;5001973;28;20037;-81
2023/03/05 02:40:22;;;;;;;11.35;2.60;;;6.00;99.90;;;;;;5020645;28;20057;-81
2023/03/05 02:42:47;;;;;;;8.43;2.20;;;5.90;99.90;;;;;;5002959;28;20053;-81
2023/03/05 02:45:14;;;;;;;6.55;2.55;;;5.90;99.90;;;;;;5007399;28;20037;-81
2023/03/05 02:47:39;;;;;;;10.98;2.25;;;5.90;99.90;;;;;;5020074;28;20352;-80
2023/03/05 02:50:06;;;;;;;7.63;2.65;;;5.80;99.90;;;;;;4999228;28;20492;-79
2023/03/05 02:52:32;;;;;;;8.18;2.65;;;5.80;99.90;;;;;;5002420;28;20504;-79
2023/03/05 02:54:57;;;;;;;6.32;1.95;;;5.80;99.90;;;;;;4999272;28;20298;-81
2023/03/05 02:57:23;;;;;;;8.48;2.10;;;5.80;99.90;;;;;;4995421;28;20149;-81
2023/03/05 02:59:49;;;;;;;8.68;1.98;;;5.80;99.90;;;;;;4984049;28;20505;-81
2023/03/05 03:02:15;;;;;;;7.45;1.95;;;5.70;99.90;;;;;;4982818;28;20541;-81
2023/03/05 03:04:41;;;;;;;6.57;1.67;;;5.70;99.90;;;;;;4993939;28;20116;-81
2023/03/05 03:07:07;;;;;;;7.07;1.70;;;5.70;99.90;;;;;;5001359;28;20053;-81
2023/03/05 03:09:34;;;;;;;4.03;1.80;;;5.60;99.90;;;;;;4999465;28;20057;-80
2023/03/05 03:12:02;;;;;;;11.70;2.17;;;5.60;99.90;;;;;;4978874;28;20034;-81
2023/03/05 03:14:38;;;;;;;4.68;1.38;;;5.60;99.90;;;;;;4996196;28;20095;-81
2023/03/05 03:17:09;;;;;;;4.47;1.55;;;5.70;99.90;;;;;;4997373;28;20056;-81
2023/03/05 03:19:38;;;;;;;7.88;1.65;;;5.70;99.90;;;;;;4995733;28;20547;-81
2023/03/05 03:22:08;;;;;;;8.80;2.15;;;5.70;99.90;;;;;;4986891;28;20033;-80
2023/03/05 03:24:36;;;;;;;10.00;1.83;;;5.70;99.90;;;;;;4993993;28;20029;-80
2023/03/05 03:27:02;;;;;;;5.22;2.10;;;5.60;99.90;;;;;;4997058;28;20125;-82
2023/03/05 03:29:28;;;;;;;7.68;2.58;;;5.60;99.90;;;;;;4998794;28;20598;-81
2023/03/05 03:31:53;;;;;;;8.95;3.00;;;5.50;99.90;;;;;;4992696;28;20407;-82
2023/03/05 03:34:19;;;;;;;6.57;2.20;;;5.60;99.90;;;;;;4997734;28;20022;-81
2023/03/05 03:36:47;;;;;;;5.53;2.35;;;5.50;99.90;;;;;;4995850;28;20199;-80
2023/03/05 03:39:13;;;;;;;11.85;3.33;;;5.60;99.90;;;;;;4996580;28;20591;-81
2023/03/05 03:41:47;;;;;;;12.30;2.47;;;5.60;99.90;;;;;;4986106;28;20033;-81
2023/03/05 03:44:13;;;;;;;11.48;2.67;;;5.60;99.90;;;;;;4999477;28;20040;-81
2023/03/05 03:46:39;;;;;;;9.90;2.33;;;5.60;99.90;;;;;;4979746;28;20022;-81
2023/03/05 03:49:09;;;;;;;8.40;2.38;;;5.60;99.90;;;;;;4997340;28;20034;-81
2023/03/05 03:51:35;;;;;;;7.30;2.53;;;5.70;99.90;;;;;;4991419;28;20018;-81
2023/03/05 03:54:00;;;;;;;11.93;2.85;;;5.60;99.90;;;;;;4986015;28;20029;-82
2023/03/05 03:56:26;;;;;;;12.43;2.75;;;5.60;99.90;;;;;;4995762;28;20025;-82
2023/03/05 03:58:53;;;;;;;14.20;2.85;;;5.60;99.90;;;;;;4995992;28;20090;-82
2023/03/05 04:01:21;;;;;;;10.65;2.50;;;5.60;99.90;;;;;;4997239;28;20100;-82
2023/03/05 04:03:47;;;;;;;6.47;2.33;;;5.70;99.90;;;;;;5001397;28;20442;-81
2023/03/05 04:06:13;;;;;;;7.57;2.38;;;5.60;99.90;;;;;;4997164;28;20022;-81
2023/03/05 04:08:39;;;;;;;13.88;2.80;;;5.60;99.90;;;;;;4998368;28;20046;-82
2023/03/05 04:11:05;;;;;;;15.27;2.72;;;5.60;99.90;;;;;;4998289;28;20072;-81
2023/03/05 04:13:31;;;;;;;9.95;2.25;;;5.60;99.90;;;;;;4997044;28;20018;-81
2023/03/05 04:15:57;;;;;;;8.68;2.80;;;5.70;99.90;;;;;;4996895;28;20049;-81
2023/03/05 04:18:23;;;;;;;9.30;2.75;;;5.60;99.90;;;;;;4996704;28;20453;-82
2023/03/05 04:20:48;;;;;;;10.80;2.38;;;5.60;99.90;;;;;;4994722;28;20466;-82
2023/03/05 04:23:14;;;;;;;7.28;2.75;;;5.60;99.90;;;;;;4986697;28;20018;-82
2023/03/05 04:25:40;;;;;;;7.28;2.58;;;5.60;99.90;;;;;;4998335;28;20474;-81
2023/03/05 04:28:05;;;;;;;8.65;2.72;;;5.60;99.90;;;;;;4980097;28;20029;-82
2023/03/05 04:30:31;;;;;;;10.05;2.45;;;5.60;99.90;;;;;;4973874;28;20405;-82
2023/03/05 04:32:57;;;;;;;9.93;2.50;;;5.60;99.90;;;;;;4992124;28;20080;-81
2023/03/05 04:35:23;;;;;;;6.80;2.10;;;5.70;99.90;;;;;;5002710;28;20032;-82
2023/03/05 04:37:49;;;;;;;15.55;2.50;;;5.80;99.90;;;;;;4998560;28;20083;-81
2023/03/05 04:40:15;;;;;;;7.32;2.30;;;5.80;99.90;;;;;;4979794;28;20041;-81
2023/03/05 04:42:40;;;;;;;10.77;2.60;;;5.70;99.90;;;;;;4986372;28;20112;-81
2023/03/05 04:45:07;;;;;;;10.95;2.17;;;5.70;99.90;;;;;;4992613;28;20030;-81
2023/03/05 04:47:33;;;;;;;18.98;2.35;;;5.70;99.90;;;;;;4976787;28;20281;-81
2023/03/05 04:49:58;;;;;;;12.32;2.45;;;5.60;99.90;;;;;;4978196;28;20027;-81
2023/03/05 04:52:24;;;;;;;8.63;2.00;;;5.60;99.90;;;;;;4991186;28;20030;-81
2023/03/05 04:54:50;;;;;;;6.18;2.20;;;5.60;99.90;;;;;;4993081;28;20390;-81
2023/03/05 04:57:15;;;;;;;8.15;1.85;;;5.60;99.90;;;;;;4996044;28;20029;-82
2023/03/05 04:59:41;;;;;;;5.22;2.30;;;5.60;99.90;;;;;;4998324;28;20022;-81
2023/03/05 05:02:07;;;;;;;9.85;2.30;;;5.50;99.90;;;;;;4976705;28;20494;-81
2023/03/05 05:04:34;;;;;;;14.30;2.17;;;5.50;99.90;;;;;;4995304;28;20028;-81
2023/03/05 05:07:00;;;;;;;11.80;2.60;;;5.50;99.90;;;;;;4992719;28;20030;-81
2023/03/05 05:09:25;;;;;;;11.48;2.25;;;5.50;99.90;;;;;;4986084;28;20033;-81
2023/03/05 05:11:51;;;;;;;15.23;2.75;;;5.50;99.90;;;;;;4996433;28;20454;-81
2023/03/05 05:14:17;;;;;;;11.18;2.60;;;5.50;99.90;;;;;;4997043;28;20161;-81
2023/03/05 05:16:43;;;;;;;9.63;2.60;;;5.50;99.90;;;;;;4996383;28;20030;-80
2023/03/05 05:19:08;;;;;;;12.63;2.60;;;5.40;99.90;;;;;;4986538;28;20028;-81
2023/03/05 05:21:34;;;;;;;9.80;3.63;;;5.40;99.90;;;;;;4996416;28;20017;-81
2023/03/05 05:24:03;;;;;;;14.30;3.30;;;5.40;99.90;;;;;;4985501;28;20038;-81
2023/03/05 05:26:28;;;;;;;6.63;3.10;;;5.40;99.90;;;;;;4993540;28;20112;-81
2023/03/05 05:28:54;;;;;;;7.13;3.35;;;5.40;99.90;;;;;;4976757;28;20530;-82
2023/03/05 05:31:20;;;;;;;11.32;3.40;;;5.40;99.90;;;;;;4992632;28;20026;-81
2023/03/05 05:33:45;;;;;;;9.32;3.13;;;5.40;99.90;;;;;;4990090;28;20093;-81
2023/03/05 05:36:14;;;;;;;10.10;3.53;;;5.40;99.90;;;;;;4992992;28;20034;-81
2023/03/05 05:38:40;;;;;;;13.00;3.38;;;5.40;99.90;;;;;;4990913;28;20104;-82
2023/03/05 05:41:12;;;;;;;14.48;3.42;;;5.50;99.90;;;;;;4978035;28;20061;-82
2023/03/05 05:43:38;;;;;;;18.83;3.58;;;5.40;99.90;;;;;;4997872;28;20038;-82
2023/03/05 05:46:06;;;;;;;10.45;3.05;;;5.40;99.90;;;;;;4992827;28;20381;-82
2023/03/05 05:48:33;;;;;;;11.63;3.08;;;5.40;99.90;;;;;;4995893;28;20132;-82
2023/03/05 05:51:03;;;;;;;11.15;3.10;;;5.40;99.90;;;;;;4992460;28;20026;-82
2023/03/05 05:53:29;;;;;;;14.00;2.90;;;5.40;99.90;;;;;;4996258;28;20026;-82
2023/03/05 05:55:55;;;;;;;7.25;3.40;;;5.30;99.90;;;;;;4995765;28;20115;-82
2023/03/05 05:58:23;;;;;;;16.08;3.42;;;5.40;99.90;;;;;;4997128;28;20582;-81
2023/03/05 06:00:48;;;;;;;10.93;3.53;;;5.40;99.90;;;;;;4997348;28;20061;-81
2023/03/05 06:03:14;;;;;;;11.10;3.38;;;5.40;99.90;;;;;;4998153;28;20147;-81
2023/03/05 06:05:41;;;;;;;14.68;3.70;;;5.40;99.90;;;;;;4978832;28;20122;-81
2023/03/05 06:08:07;;;;;;;11.38;3.05;;;5.50;99.90;;;;;;4997514;28;20259;-81
2023/03/05 06:10:33;;;;;;;12.73;3.80;;;5.50;99.90;;;;;;4983318;28;20022;-82
2023/03/05 06:12:58;;;;;;;13.32;3.38;;;5.50;99.90;;;;;;4994136;28;20025;-82
2023/03/05 06:15:26;;;;;;;19.13;2.92;;;5.50;99.90;;;;;;4986058;28;21117;-82
2023/03/05 06:17:53;;;;;;;14.60;3.38;;;5.40;99.90;;;;;;4996970;28;20014;-81
2023/03/05 06:20:19;;;;;;;12.95;3.45;;;5.40;99.90;;;;;;5002654;28;20037;-82
2023/03/05 06:22:45;;;;;;;8.50;2.92;;;5.40;99.90;;;;;;4982514;28;20034;-81
2023/03/05 06:25:10;;;;;;;9.63;3.30;;;5.40;99.90;;;;;;4999614;28;20026;-82
2023/03/05 06:27:36;;;;;;;14.25;3.75;;;5.40;99.90;;;;;;4993249;28;20038;-82
2023/03/05 06:30:03;;;;;;;11.95;3.22;;;5.40;99.90;;;;;;4979069;28;20022;-82
2023/03/05 06:32:29;;;;;;;7.22;2.95;;;5.40;99.90;;;;;;4994390;28;20018;-82
2023/03/05 06:34:54;;;;;;;11.95;3.70;;;5.50;99.90;;;;;;4978589;28;20553;-82
2023/03/05 06:37:20;;;;;;;13.48;3.05;;;5.60;99.90;;;;;;4994746;28;20080;-82
2023/03/05 06:39:46;;;;;;;13.63;3.83;;;5.60;99.90;;;;;;4996208;28;20084;-81
2023/03/05 06:42:11;;;;;;;19.80;4.45;;;5.50;99.90;;;;;;4991337;28;20033;-82
2023/03/05 06:44:39;;;;;;;13.30;3.70;;;5.50;99.90;;;;;;4978489;28;20030;-82
2023/03/05 06:47:09;;;;;;;16.15;3.30;;;5.40;99.90;;;;;;4991992;28;20093;-81
2023/03/05 06:49:35;;;;;;;8.07;3.00;;;5.50;99.90;;;;;;4977537;28;20025;-82
2023/03/05 06:52:02;;;;;;;10.52;3.25;;;5.60;99.90;;;;;;4982949;28;20510;-82
2023/03/05 06:54:28;;;;;;;9.77;3.42;;;5.50;99.90;;;;;;4993092;28;20042;-82
2023/03/05 06:56:53;;;;;;;15.00;2.60;;;5.50;99.90;;;;;;4992582;28;20077;-82
2023/03/05 06:59:20;;;;;;;12.07;3.10;;;5.50;99.90;;;;;;4995755;28;20493;-82
2023/03/05 07:01:46;;;;;;;18.10;3.40;;;5.50;99.90;;;;;;4994738;28;20014;-82
2023/03/05 07:04:12;;;;;;;12.90;3.83;;;5.50;99.90;;;;;;4992735;28;20087;-82
2023/03/05 07:06:41;;;;;;;10.02;2.95;;;5.50;99.90;;;;;;4982631;28;20036;-81
2023/03/05 07:09:08;;;;;;;13.30;3.38;;;5.60;99.90;;;;;;4998060;28;20034;-83
2023/03/05 07:11:34;;;;;;;12.38;4.05;;;5.70;99.90;;;;;;4984932;28;20524;-82
2023/03/05 07:14:03;;;;;;;9.88;3.95;;;5.70;99.90;;;;;;4995953;28;20032;-82
2023/03/05 07:16:31;;;;;;;10.68;3.90;;;5.80;99.90;;;;;;4979106;28;20030;-80
2023/03/05 07:19:01;;;;;;;13.63;4.03;;;5.80;99.90;;;;;;4995974;28;20101;-80
2023/03/05 07:21:29;;;;;;;12.65;3.13;;;5.80;99.90;;;;;;4981970;28;20050;-79
2023/03/05 07:23:56;;;;;;;8.73;2.85;;;5.90;99.90;;;;;;4996166;28;20981;-79
2023/03/05 07:26:22;;;;;;;8.73;2.25;;;5.80;99.90;;;;;;4982825;28;20026;-79
2023/03/05 07:28:49;;;;;;;9.10;2.83;;;5.80;99.90;;;;;;4994953;28;20038;-80
2023/03/05 07:31:17;;;;;;;12.13;3.17;;;5.80;99.90;;;;;;4984585;28;20022;-79
2023/03/05 07:33:44;;;;;;;10.07;2.85;;;5.90;99.90;;;;;;4994289;28;20026;-82
2023/03/05 07:36:11;;;;;;;8.30;2.55;;;6.00;99.90;;;;;;4989573;28;20445;-82
2023/03/05 07:38:37;;;;;;;11.40;2.50;;;6.00;99.90;;;;;;4982587;28;20026;-81
2023/03/05 07:41:18;;;;;;;15.77;2.58;;;6.00;99.90;;;;;;4984492;28;20118;-80
2023/03/05 07:43:45;;;;;;;9.07;2.30;;;6.00;99.90;;;;;;4993427;28;20042;-83
2023/03/05 07:46:12;;;;;;;8.60;2.20;;;5.80;99.90;;;;;;4994219;28;20033;-83
2023/03/05 07:48:38;;;;;;;9.75;2.80;;;5.80;99.90;;;;;;4996807;28;20045;-83
2023/03/05 07:51:13;;;;;;;6.07;2.63;;;5.90;99.90;;;;;;4997714;28;20018;-84
2023/03/05 07:53:39;;;;;;;12.25;3.35;;;5.90;99.90;;;;;;4989467;28;20021;-81
2023/03/05 07:56:05;;;;;;;13.88;2.50;;;5.90;99.90;;;;;;5012345;28;20038;-81
2023/03/05 07:58:36;;;;;;;4.15;2.08;;;5.90;99.90;;;;;;5025471;28;20032;-83
2023/03/05 08:01:02;;;;;;;11.75;2.80;;;5.90;99.90;;;;;;5012985;28;20046;-81
2023/03/05 08:03:28;;;;;;;17.35;3.58;;;5.90;99.90;;;;;;5022813;28;20030;-81
2023/03/05 08:05:54;;;;;;;9.07;2.78;;;6.00;99.90;;;;;;5008606;28;20173;-84
2023/03/05 08:08:19;;;;;;;6.88;2.53;;;6.00;99.90;;;;;;5004742;28;20030;-82
2023/03/05 08:10:45;;;;;;;5.30;2.45;;;6.00;99.90;;;;;;4978521;28;20029;-82
2023/03/05 08:13:11;;;;;;;17.63;3.38;;;6.00;99.90;;;;;;5000794;28;20070;-81
2023/03/05 08:15:37;;;;;;;4.93;2.67;;;6.10;99.90;;;;;;4982753;28;20032;-82
2023/03/05 08:18:03;;;;;;;5.93;2.70;;;6.20;99.90;;;;;;5000768;28;20022;-82
2023/03/05 08:20:29;;;;;;;11.68;3.45;;;6.30;99.90;;;;;;4995776;28;20394;-82
2023/03/05 08:22:54;;;;;;;8.35;2.30;;;6.40;99.90;;;;;;4986376;28;20093;-80
2023/03/05 08:25:20;;;;;;;6.07;2.70;;;6.40;99.90;;;;;;4993815;28;20681;-82
2023/03/05 08:27:47;;;;;;;6.03;2.60;;;6.60;99.90;;;;;;4997456;28;20121;-82
2023/03/05 08:30:18;;;;;;;9.65;2.75;;;6.60;99.90;;;;;;4993109;28;20037;-83
2023/03/05 08:32:44;;;;;;;9.65;2.90;;;6.60;99.90;;;;;;4997118;28;20548;-81
2023/03/05 08:35:09;;;;;;;8.07;2.58;;;6.70;99.90;;;;;;4983105;28;20195;-82
2023/03/05 08:37:35;;;;;;;7.13;2.65;;;6.80;99.90;;;;;;4995745;28;20050;-82
2023/03/05 08:40:01;;;;;;;6.30;2.70;;;6.80;99.90;;;;;;4990399;28;20136;-82
2023/03/05 08:42:27;;;;;;;9.15;3.17;;;6.90;99.90;;;;;;4984489;28;20060;-82
2023/03/05 08:44:52;;;;;;;6.13;3.03;;;7.00;99.90;;;;;;4996514;28;20036;-82
2023/03/05 08:47:19;;;;;;;6.38;2.85;;;7.10;99.90;;;;;;4994804;28;20108;-81
2023/03/05 08:49:45;;;;;;;9.30;3.30;;;7.10;99.90;;;;;;4998419;28;20127;-81
2023/03/05 08:52:10;;;;;;;7.55;2.97;;;7.00;99.90;;;;;;4980176;28;20400;-81
2023/03/05 08:54:36;;;;;;;8.35;3.35;;;6.90;99.90;;;;;;4983274;28;20038;-82
2023/03/05 08:57:04;;;;;;;8.57;2.97;;;6.90;99.90;;;;;;4983743;28;20172;-81
2023/03/05 08:59:31;;;;;;;8.38;3.15;;;6.90;99.90;;;;;;4996528;28;20143;-82
2023/03/05 09:02:03;;;;;;;10.90;3.13;;;6.80;99.90;;;;;;4994539;28;20072;-81
2023/03/05 09:04:32;;;;;;;7.47;3.30;;;6.80;99.90;;;;;;4996034;28;20515;-82
2023/03/05 09:06:57;;;;;;;7.05;3.40;;;7.00;99.90;;;;;;4997289;28;20046;-83
2023/03/05 09:09:23;;;;;;;6.70;3.25;;;7.00;99.90;;;;;;4995321;28;20108;-81
2023/03/05 09:11:51;;;;;;;4.93;2.35;;;7.10;99.90;;;;;;4998283;28;20026;-81
2023/03/05 09:14:17;;;;;;;3.80;1.92;;;7.10;99.90;;;;;;4985040;28;20026;-81
2023/03/05 09:16:43;;;;;;;3.78;2.40;;;6.90;99.90;;;;;;4984493;28;20034;-81
2023/03/05 09:19:11;;;;;;;8.88;4.00;;;6.80;99.90;;;;;;4994266;28;20031;-81
2023/03/05 09:21:36;;;;;;;6.45;4.45;;;6.70;99.90;;;;;;4996065;28;20180;-81
2023/03/05 09:24:03;;;;;;;3.53;2.65;;;6.80;99.90;;;;;;4983820;28;20495;-81
2023/03/05 09:26:29;;;;;;;5.10;2.42;;;6.80;99.90;;;;;;4996830;28;20056;-81
2023/03/05 09:28:54;;;;;;;4.75;3.03;;;6.90;99.90;;;;;;4997525;28;20505;-81
2023/03/05 09:31:23;;;;;;;7.97;2.67;;;7.00;99.90;;;;;;5001215;28;20572;-81
2023/03/05 09:33:51;;;;;;;4.93;2.50;;;7.00;99.90;;;;;;4983845;28;20512;-81
2023/03/05 09:36:24;;;;;;;8.63;3.20;;;7.10;99.90;;;;;;4999505;28;20593;-81
2023/03/05 09:38:50;;;;;;;11.68;3.00;;;7.00;99.90;;;;;;4976955;28;20026;-81
2023/03/05 09:41:36;;;;;;;4.53;2.33;;;7.00;99.90;;;;;;4986277;28;20074;-81
2023/03/05 09:44:20;;;;;;;8.15;2.85;;;7.10;99.90;;;;;;4977978;28;20057;-81
2023/03/05 09:47:06;;;;;;;6.18;3.13;;;7.30;99.90;;;;;;4997220;28;20022;-82
2023/03/05 09:49:37;;;;;;;5.68;2.83;;;7.50;99.90;;;;;;4981895;28;20108;-81
2023/03/05 09:52:13;;;;;;;4.47;2.90;;;7.80;99.90;;;;;;4992256;28;20026;-81
2023/03/05 09:54:42;;;;;;;7.22;2.75;;;8.30;99.90;;;;;;4993346;28;20077;-81
2023/03/05 09:57:21;;;;;;;8.20;3.03;;;8.60;99.90;;;;;;4995696;28;20105;-80
2023/03/05 09:59:54;;;;;;;5.93;2.50;;;8.70;99.90;;;;;;4993518;28;20030;-82
2023/03/05 10:02:34;;;;;;;10.27;3.88;;;8.60;99.90;;;;;;4993412;28;20180;-81
2023/03/05 10:05:21;;;;;;;6.35;2.85;;;8.40;99.90;;;;;;4981579;28;20038;-81
2023/03/05 10:07:59;;;;;;;8.15;3.13;;;8.30;99.90;;;;;;4995294;28;20436;-81
2023/03/05 10:10:34;;;;;;;9.70;3.15;;;8.50;99.90;;;;;;4991282;28;20433;-82
2023/03/05 10:13:09;;;;;;;9.63;3.20;;;8.50;99.90;;;;;;4994033;28;20351;-81
2023/03/05 10:15:38;;;;;;;3.78;2.47;;;8.60;99.90;;;;;;4996621;28;20026;-82
2023/03/05 10:18:40;;;;;;;7.80;2.70;;;9.00;99.90;;;;;;4996498;28;20513;-82
2023/03/05 10:21:34;;;;;;;7.88;2.70;;;9.30;99.90;;;;;;4995665;28;20434;-82
2023/03/05 10:24:35;;;;;;;8.63;2.50;;;9.20;99.90;;;;;;4991089;28;20508;-82
2023/03/05 10:27:18;;;;;;;6.28;2.80;;;8.80;99.90;;;;;;4951063;28;20038;-82
2023/03/05 10:30:23;;;;;;;6.50;1.85;;;9.10;99.90;;;;;;4989890;28;20045;-83
2023/03/05 10:33:01;;;;;;;4.35;1.45;;;10.00;99.90;;;;;;4973010;28;20112;-82
2023/03/05 10:35:53;;;;;;;6.18;1.85;;;10.40;99.90;;;;;;4979040;28;20081;-82
2023/03/05 10:38:49;;;;;;;6.68;1.88;;;10.60;99.90;;;;;;4978415;28;20036;-81
2023/03/05 10:41:44;;;;;;;4.20;1.70;;;10.40;99.90;;;;;;4991680;28;20398;-83
2023/03/05 10:44:19;;;;;;;6.35;1.30;;;10.10;99.90;;;;;;4992544;28;20061;-81
2023/03/05 10:46:47;;;;;;;7.28;1.50;;;10.10;99.90;;;;;;4977513;28;20065;-82
2023/03/05 10:49:28;;;;;;;4.15;1.73;;;10.30;99.90;;;;;;4995088;28;20363;-81
2023/03/05 10:52:00;;;;;;;2.15;1.63;;;10.70;99.90;;;;;;4988958;28;20033;-82
2023/03/05 10:54:30;;;;;;;4.88;1.73;;;10.70;99.90;;;;;;4994221;28;20034;-81
2023/03/05 10:57:22;;;;;;;4.80;1.30;;;10.80;99.90;;;;;;4979457;28;20036;-83
2023/03/05 10:59:56;;;;;;;6.22;1.25;;;10.80;99.90;;;;;;4981635;28;20115;-82
2023/03/05 11:02:22;;;;;;;3.03;0.80;;;10.60;99.90;;;;;;4993778;28;20045;-82
2023/03/05 11:04:49;;;;;;;2.63;1.30;;;10.20;99.90;;;;;;5000461;28;20106;-81
2023/03/05 11:07:15;;;;;;;5.03;0.85;;;10.00;99.90;;;;;;4985270;28;20505;-82
2023/03/05 11:09:42;;;;;;;2.90;0.93;;;10.10;99.90;;;;;;4999727;28;20026;-81
2023/03/05 11:12:20;;;;;;;2.05;0.93;;;10.20;99.90;;;;;;4978151;28;20030;-82
2023/03/05 11:15:05;;;;;;;2.65;0.88;;;10.30;99.90;;;;;;4983764;28;20030;-82
2023/03/05 11:17:42;;;;;;;2.47;0.75;;;10.40;99.90;;;;;;4997776;28;20030;-81
2023/03/05 11:20:25;;;;;;;4.22;1.17;;;10.40;99.90;;;;;;4998076;28;20029;-82
2023/03/05 11:23:22;;;;;;;4.53;0.90;;;10.50;99.90;;;;;;4992840;28;20398;-81
2023/03/05 11:25:53;;;;;;;2.45;0.90;;;10.30;99.90;;;;;;4979670;28;20030;-81
2023/03/05 11:28:27;;;;;;;3.90;0.85;;;10.20;99.90;;;;;;4999008;28;20116;-82
2023/03/05 11:31:15;;;;;;;0.80;0.75;;;10.40;99.90;;;;;;4978798;28;20791;-82
2023/03/05 11:34:08;;;;;;;4.32;0.70;;;10.50;99.90;;;;;;5000006;28;20025;-82
2023/03/05 11:36:34;;;;;;;;;;;10.40;99.90;;;;;;5000958;28;20033;-82
2023/03/05 11:39:09;;;;;;;2.40;0.93;;;10.20;99.90;;;;;;4980869;28;20244;-82
2023/03/05 11:41:49;;;;;;;2.97;1.23;;;10.10;99.90;;;;;;4998944;28;20489;-81
2023/03/05 11:44:34;;;;;;;5.20;1.27;;;9.90;99.90;;;;;;4981581;28;20473;-82
2023/03/05 11:47:31;;;;;;;4.63;1.40;;;9.80;99.90;;;;;;4979532;28;20038;-82
2023/03/05 11:50:20;;;;;;;1.58;1.08;;;9.90;99.90;;;;;;5004646;28;20029;-82
2023/03/05 11:52:48;;;;;;;4.25;1.42;;;9.90;99.90;;;;;;5009208;28;20018;-82
2023/03/05 11:55:24;;;;;;;1.63;0.80;;;9.90;99.90;;;;;;5005240;28;20090;-81
2023/03/05 11:58:11;;;;;;;1.40;0.85;;;9.80;99.90;;;;;;4998665;28;20021;-82
2023/03/05 12:00:42;;;;;;;3.22;0.88;;;9.80;99.90;;;;;;4976253;28;20027;-81
2023/03/05 12:03:15;;;;;;;3.08;1.15;;;10.00;99.90;;;;;;5000045;28;20034;-82
2023/03/05 12:05:46;;;;;;;3.95;1.17;;;9.90;99.90;;;;;;4999783;28;20038;-82
2023/03/05 12:08:18;;;;;;;1.40;1.30;;;9.90;99.90;;;;;;5004918;28;20102;-82
2023/03/05 12:10:44;;;;;;;2.05;1.38;;;9.70;99.90;;;;;;4983968;28;20031;-82
2023/03/05 12:13:32;;;;;;;4.15;1.38;;;9.50;99.90;;;;;;4989497;28;20021;-81
2023/03/05 12:16:23;;;;;;;9.00;1.50;;;9.50;99.90;;;;;;4981365;28;20026;-81
2023/03/05 12:19:03;;;;;;;3.42;1.38;;;9.50;99.90;;;;;;5000260;28;20466;-82
2023/03/05 12:21:35;;;;;;;210.55;70.93;;;9.50;99.90;;;;;;4995158;28;20018;-83
2023/03/05 12:24:22;;;;;;;2.90;1.60;;;9.40;99.90;;;;;;4978676;28;20034;-82
2023/03/05 12:27:03;;;;;;;2.30;1.30;;;9.40;99.90;;;;;;4984012;28;20025;-82
2023/03/05 12:29:50;;;;;;;4.50;1.50;;;9.10;99.90;;;;;;4996922;28;20100;-81
2023/03/05 12:32:21;;;;;;;5.78;1.20;;;9.00;99.90;;;;;;5001827;28;20030;-82
2023/03/05 12:34:56;;;;;;;2.17;1.40;;;9.10;99.90;;;;;;4999696;28;20018;-82
2023/03/05 12:37:22;;;;;;;4.40;1.30;;;9.10;99.90;;;;;;4982499;28;21076;-80
2023/03/05 12:40:03;;;;;;;4.72;1.25;;;9.30;99.90;;;;;;4996872;28;20014;-82
2023/03/05 12:42:29;;;;;;;3.17;1.30;;;9.60;99.90;;;;;;4999235;28;20220;-80
2023/03/05 12:45:15;;;;;;;3.85;1.42;;;9.80;99.90;;;;;;4987380;28;20120;-80
2023/03/05 12:47:48;;;;;;;5.03;1.80;;;9.90;99.90;;;;;;4974464;28;20365;-81
2023/03/05 12:50:25;;;;;;;;;;;10.00;99.90;;;;;;4996346;28;20018;-81
2023/03/05 12:52:56;;;;;;;4.53;2.00;;;10.20;99.90;;;;;;4997207;28;19910;-81
2023/03/05 12:55:32;;;;;;;11.18;4.72;;;10.10;99.90;;;;;;4998495;28;20311;-80
2023/03/05 12:58:10;;;;;;;3.25;1.23;;;10.00;99.90;;;;;;5000785;28;20048;-83
2023/03/05 13:00:53;;;;;;;3.30;1.20;;;9.90;99.90;;;;;;5006665;28;20021;-82
2023/03/05 13:03:26;;;;;;;;;;;10.00;99.90;;;;;;5000754;28;20030;-80
2023/03/05 13:05:54;;;;;;;4.88;1.25;;;10.10;99.90;;;;;;5018300;28;20464;-80